Time;durP1;ratioP1;P1;durP2;ratioP2;P2;SDS_P1;SDS_P2;PMS_P1;PMS_P2;Temp;Humidity;BMP_temperature;BMP_pressure;BME280_temperature;BME280_humidity;BME280_pressure;Samples;Min_cycle;Max_cycle;Signal;HPM_P1;HPM_P2
2022/03/04 00:00:47;;;;;;;16.40;8.53;;;;;;;1.10;52.81;98615.97;5163499;27;20176;-62
2022/03/04 00:03:14;;;;;;;16.97;8.07;;;;;;;1.03;52.63;98615.53;5163618;27;20245;-62
2022/03/04 00:05:42;;;;;;;13.40;8.27;;;;;;;1.03;51.75;98615.53;5163082;27;20204;-62
2022/03/04 00:08:10;;;;;;;17.07;8.90;;;;;;;0.92;53.11;98617.06;5162906;27;20184;-62
2022/03/04 00:10:38;;;;;;;16.03;8.27;;;;;;;0.75;56.60;98631.72;5163334;27;20193;-62
2022/03/04 00:13:06;;;;;;;15.30;8.53;;;;;;;0.60;55.83;98625.72;5144627;27;20556;-62
2022/03/04 00:15:34;;;;;;;17.07;8.07;;;;;;;0.50;55.03;98627.16;5161784;27;20276;-62
2022/03/04 00:18:01;;;;;;;14.97;8.37;;;;;;;0.46;54.95;98633.38;5162999;27;20184;-62
2022/03/04 00:20:28;;;;;;;14.93;7.63;;;;;;;0.34;56.27;98634.91;5144111;27;20197;-62
2022/03/04 00:22:55;;;;;;;14.70;7.83;;;;;;;0.25;55.13;98639.63;5162376;27;20544;-62
2022/03/04 00:25:24;;;;;;;17.60;8.20;;;;;;;0.17;55.35;98643.53;5162383;27;20224;-62
2022/03/04 00:27:51;;;;;;;13.90;8.17;;;;;;;0.15;55.91;98648.75;5162612;27;20196;-62
2022/03/04 00:30:18;;;;;;;16.90;8.40;;;;;;;0.03;55.50;98649.41;5162781;27;20182;-62
2022/03/04 00:32:46;;;;;;;15.10;8.13;;;;;;;0.09;58.23;98641.38;5162277;27;20181;-62
2022/03/04 00:35:13;;;;;;;14.63;8.47;;;;;;;-0.03;57.39;98645.47;5162503;27;20218;-62
2022/03/04 00:37:40;;;;;;;17.80;8.20;;;;;;;-0.06;56.44;98636.19;5158345;27;20425;-63
2022/03/04 00:40:09;;;;;;;17.77;8.93;;;;;;;-0.07;56.20;98637.09;5156449;27;20200;-62
2022/03/04 00:42:37;;;;;;;18.73;8.90;;;;;;;0.13;54.45;98633.41;5143554;27;20197;-63
2022/03/04 00:45:05;;;;;;;15.60;8.80;;;;;;;0.12;54.95;98629.19;5143248;27;20209;-62
2022/03/04 00:47:32;;;;;;;14.03;8.40;;;;;;;0.19;54.43;98636.56;5162123;27;20220;-62
2022/03/04 00:50:01;;;;;;;15.03;8.30;;;;;;;0.27;54.41;98637.81;5161736;27;20245;-62
2022/03/04 00:52:28;;;;;;;17.93;9.17;;;;;;;0.24;54.89;98634.56;5162261;27;20180;-62
2022/03/04 00:54:55;;;;;;;16.93;9.07;;;;;;;0.32;53.06;98631.59;5161439;27;20204;-62
2022/03/04 00:57:22;;;;;;;16.30;8.97;;;;;;;0.32;54.90;98637.53;5160780;27;20253;-62
2022/03/04 00:59:51;;;;;;;16.83;8.87;;;;;;;0.32;56.30;98637.53;5161405;27;20473;-62
2022/03/04 01:02:18;;;;;;;16.53;8.47;;;;;;;0.19;57.07;98634.84;5161629;27;20177;-62
2022/03/04 01:04:45;;;;;;;17.05;10.63;;;;;;;0.18;57.80;98627.19;5161384;27;20427;-62
2022/03/04 01:07:12;;;;;;;14.40;9.43;;;;;;;0.06;58.61;98626.16;5161975;27;20209;-62
2022/03/04 01:09:39;;;;;;;13.67;8.33;;;;;;;-0.13;58.85;98639.16;5163016;27;20181;-62
2022/03/04 01:12:08;;;;;;;14.53;8.37;;;;;;;-0.18;59.53;98634.25;5161957;27;20188;-62
2022/03/04 01:14:35;;;;;;;16.40;8.77;;;;;;;-0.28;61.49;98636.50;5163022;27;20278;-62
2022/03/04 01:17:04;;;;;;;17.03;8.90;;;;;;;-0.40;60.26;98627.72;5163670;27;20224;-62
2022/03/04 01:19:31;;;;;;;14.17;8.90;;;;;;;-0.56;59.67;98625.13;5162613;27;20185;-62
2022/03/04 01:21:58;;;;;;;13.93;8.23;;;;;;;-0.65;59.92;98625.63;5161515;27;20272;-62
2022/03/04 01:24:25;;;;;;;16.00;8.47;;;;;;;-0.54;58.17;98625.88;5161221;27;20247;-62
2022/03/04 01:26:52;;;;;;;14.07;7.30;;;;;;;-0.60;58.45;98626.22;5143541;27;20243;-62
2022/03/04 01:29:19;;;;;;;16.53;8.70;;;;;;;-0.63;60.12;98616.97;5142907;27;20282;-62
2022/03/04 01:31:46;;;;;;;14.50;8.53;;;;;;;-0.76;60.04;98614.19;5143690;27;20195;-62
2022/03/04 01:34:14;;;;;;;18.05;10.35;;;;;;;-0.67;61.17;98612.91;5161191;27;20831;-62
2022/03/04 01:36:42;;;;;;;17.47;9.33;;;;;;;-0.72;60.43;98607.19;5160547;27;20215;-62
2022/03/04 01:39:09;;;;;;;17.73;10.03;;;;;;;-0.69;59.92;98604.44;5160172;27;20188;-62
2022/03/04 01:41:36;;;;;;;20.07;9.07;;;;;;;-0.68;59.16;98597.56;5160269;27;20175;-62
2022/03/04 01:44:03;;;;;;;18.93;9.53;;;;;;;-0.42;56.30;98601.31;5159350;27;20295;-62
2022/03/04 01:46:32;;;;;;;14.93;8.73;;;;;;;-0.37;58.52;98606.22;5159604;27;20214;-62
2022/03/04 01:48:59;;;;;;;21.37;8.87;;;;;;;-0.36;57.02;98601.00;5163260;27;20189;-62
2022/03/04 01:51:28;;;;;;;17.27;8.57;;;;;;;-0.23;56.66;98600.34;5163537;27;20191;-62
2022/03/04 01:53:55;;;;;;;19.43;10.07;;;;;;;-0.42;57.55;98588.50;5136578;22;20338;-62
2022/03/04 01:56:24;;;;;;;18.97;9.20;;;;;;;-0.42;59.14;98592.81;5092477;28;20288;-61
2022/03/04 01:58:51;;;;;;;16.13;8.83;;;;;;;-0.40;57.70;98593.56;5110619;28;20531;-61
2022/03/04 02:01:19;;;;;;;18.90;9.77;;;;;;;-0.41;59.29;98602.97;5111053;28;20182;-61
2022/03/04 02:03:46;;;;;;;19.83;9.47;;;;;;;-0.47;59.53;98593.03;5110749;28;20418;-61
2022/03/04 02:06:13;;;;;;;19.03;9.40;;;;;;;-0.50;58.08;98596.63;5110451;28;20247;-61
2022/03/04 02:08:41;;;;;;;16.57;9.30;;;;;;;-0.59;59.18;98597.09;5110680;28;20189;-61
2022/03/04 02:11:08;;;;;;;14.37;8.53;;;;;;;-0.64;59.40;98589.66;5092591;28;20196;-62
2022/03/04 02:13:37;;;;;;;17.67;10.10;;;;;;;-0.64;60.75;98591.38;5110535;28;20267;-61
2022/03/04 02:16:07;;;;;;;21.17;9.43;;;;;;;-0.69;61.79;98585.66;5110196;28;20205;-61
2022/03/04 02:18:33;;;;;;;14.80;9.00;;;;;;;-0.83;61.61;98591.53;5096099;28;20182;-62
2022/03/04 02:21:03;;;;;;;18.10;9.13;;;;;;;-0.79;61.66;98596.41;5090512;28;20181;-61
2022/03/04 02:23:30;;;;;;;16.47;9.33;;;;;;;-0.93;61.10;98601.41;5090305;28;20238;-61
2022/03/04 02:26:01;;;;;;;16.83;9.93;;;;;;;-1.02;61.59;98600.16;5090123;28;20178;-62
2022/03/04 02:28:28;;;;;;;17.03;10.00;;;;;;;-0.99;62.28;98604.28;5090639;28;20231;-61
2022/03/04 02:30:54;;;;;;;21.47;10.30;;;;;;;-1.12;63.73;98599.81;5090549;28;20239;-61
2022/03/04 02:33:22;;;;;;;18.03;9.73;;;;;;;-1.25;62.47;98597.00;5089822;28;20220;-61
2022/03/04 02:35:49;;;;;;;16.37;9.10;;;;;;;-1.25;63.00;98602.13;5089834;28;20799;-61
2022/03/04 02:38:15;;;;;;;16.77;8.50;;;;;;;-1.08;62.31;98593.63;5090192;28;20186;-61
2022/03/04 02:40:44;;;;;;;18.10;9.53;;;;;;;-1.12;62.92;98601.53;5090636;28;20194;-61
2022/03/04 02:43:11;;;;;;;18.37;9.53;;;;;;;-1.29;63.57;98603.19;5088623;28;20218;-62
2022/03/04 02:45:38;;;;;;;18.27;9.70;;;;;;;-1.10;61.92;98603.13;5089787;28;20193;-62
2022/03/04 02:48:05;;;;;;;17.77;9.80;;;;;;;-1.20;63.28;98604.47;5090179;28;20190;-61
2022/03/04 02:50:31;;;;;;;18.10;9.50;;;;;;;-1.33;62.53;98606.81;5090213;28;20187;-61
2022/03/04 02:52:58;;;;;;;16.57;9.37;;;;;;;-1.41;63.57;98608.91;5089907;28;20217;-61
2022/03/04 02:55:25;;;;;;;18.37;9.67;;;;;;;-1.36;63.62;98610.38;5088449;28;20202;-61
2022/03/04 02:57:53;;;;;;;15.37;8.53;;;;;;;-1.48;63.53;98616.09;5090111;28;20182;-61
2022/03/04 03:00:20;;;;;;;19.03;9.80;;;;;;;-1.39;63.23;98604.56;5089922;28;20206;-61
2022/03/04 03:02:47;;;;;;;18.10;8.80;;;;;;;-1.22;64.30;98612.22;5089802;28;20193;-61
2022/03/04 03:05:14;;;;;;;17.07;9.33;;;;;;;-1.34;64.51;98617.97;5089652;28;20197;-61
2022/03/04 03:07:42;;;;;;;16.40;9.07;;;;;;;-1.31;63.70;98624.69;5089986;28;20194;-61
2022/03/04 03:10:11;;;;;;;20.77;9.23;;;;;;;-1.38;65.10;98624.13;5090097;28;20522;-61
2022/03/04 03:12:38;;;;;;;19.97;9.47;;;;;;;-1.53;63.54;98615.47;5089717;28;20206;-61
2022/03/04 03:15:09;;;;;;;18.90;9.27;;;;;;;-1.66;64.80;98617.81;5089658;28;20182;-61
2022/03/04 03:17:37;;;;;;;21.00;9.90;;;;;;;-1.74;65.38;98620.72;5090297;28;20212;-61
2022/03/04 03:20:04;;;;;;;17.27;9.07;;;;;;;-1.86;65.06;98621.31;5092243;28;20182;-61
2022/03/04 03:22:31;;;;;;;18.40;8.90;;;;;;;-1.88;65.31;98615.44;5093519;28;20217;-61
2022/03/04 03:24:58;;;;;;;19.60;10.57;;;;;;;-1.92;64.99;98627.56;5093484;28;20192;-61
2022/03/04 03:27:25;;;;;;;20.53;10.33;;;;;;;-1.75;65.27;98628.50;5096418;28;20190;-62
2022/03/04 03:29:51;;;;;;;17.67;9.43;;;;;;;-1.83;65.94;98629.69;5095669;28;20209;-62
2022/03/04 03:32:20;;;;;;;18.47;9.57;;;;;;;-1.77;64.95;98633.66;5098398;28;20217;-61
2022/03/04 03:34:46;;;;;;;16.57;8.40;;;;;;;-1.79;64.65;98638.03;5100960;28;20202;-62
2022/03/04 03:37:13;;;;;;;21.27;9.53;;;;;;;-1.73;64.74;98632.63;5103082;28;20622;-61
2022/03/04 03:39:40;;;;;;;19.63;9.17;;;;;;;-1.77;64.42;98636.22;5102823;28;20188;-62
2022/03/04 03:42:08;;;;;;;16.60;8.70;;;;;;;-1.76;64.57;98631.94;5100757;28;20228;-61
2022/03/04 03:44:35;;;;;;;17.27;9.77;;;;;;;-1.81;65.02;98630.44;5102570;28;20193;-61
2022/03/04 03:47:02;;;;;;;18.43;9.90;;;;;;;-1.77;65.53;98630.28;5102959;28;20228;-62
2022/03/04 03:49:30;;;;;;;20.40;8.87;;;;;;;-1.77;65.72;98628.53;5101245;28;20189;-61
2022/03/04 03:51:57;;;;;;;17.27;9.43;;;;;;;-1.75;64.84;98631.84;5101975;28;20212;-61
2022/03/04 03:54:24;;;;;;;17.87;8.97;;;;;;;-1.89;65.27;98618.88;5102227;28;20202;-61
2022/03/04 03:56:51;;;;;;;17.27;8.67;;;;;;;-1.88;65.04;98623.94;5100772;28;20243;-62
2022/03/04 03:59:17;;;;;;;16.43;8.97;;;;;;;-1.89;65.47;98629.13;5097063;28;20217;-61
2022/03/04 04:01:44;;;;;;;18.17;8.90;;;;;;;-1.97;65.41;98624.38;5092944;28;20185;-61
2022/03/04 04:04:12;;;;;;;16.10;8.83;;;;;;;-1.89;65.04;98624.84;5092405;28;20676;-61
2022/03/04 04:06:41;;;;;;;18.17;9.43;;;;;;;-1.93;65.06;98625.91;5092990;28;20186;-61
2022/03/04 04:09:08;;;;;;;17.23;9.47;;;;;;;-1.99;65.58;98610.81;5092866;28;20194;-62
2022/03/04 04:11:36;;;;;;;18.83;9.77;;;;;;;-1.98;64.84;98620.16;5092880;28;20239;-61
2022/03/04 04:14:03;;;;;;;22.97;8.90;;;;;;;-2.00;65.81;98622.78;5092188;28;20202;-62
2022/03/04 04:16:30;;;;;;;19.17;8.83;;;;;;;-1.98;65.55;98628.66;5092703;28;20271;-62
2022/03/04 04:18:57;;;;;;;17.90;9.20;;;;;;;-1.96;65.48;98631.16;5092787;28;20186;-61
2022/03/04 04:21:24;;;;;;;17.17;9.13;;;;;;;-2.00;64.67;98627.06;5092729;28;20193;-62
2022/03/04 04:23:52;;;;;;;17.50;9.63;;;;;;;-2.06;65.77;98632.47;5092174;28;20209;-62
2022/03/04 04:26:20;;;;;;;18.10;9.67;;;;;;;-2.14;66.85;98633.66;5092378;28;20719;-62
2022/03/04 04:28:47;;;;;;;17.33;9.80;;;;;;;-2.02;67.08;98631.44;5092494;28;20198;-62
2022/03/04 04:31:14;;;;;;;21.67;10.13;;;;;;;-1.99;67.24;98634.66;5092769;28;20207;-62
2022/03/04 04:33:41;;;;;;;17.50;9.20;;;;;;;-2.12;67.70;98639.53;5092167;28;20233;-61
2022/03/04 04:36:08;;;;;;;19.70;9.63;;;;;;;-2.01;66.11;98627.97;5091744;28;20198;-62
2022/03/04 04:38:35;;;;;;;20.17;9.43;;;;;;;-2.05;67.55;98640.06;5092290;28;20289;-62
2022/03/04 04:41:04;;;;;;;20.83;10.60;;;;;;;-2.01;67.00;98639.03;5092264;28;20189;-62
2022/03/04 04:43:30;;;;;;;17.30;9.40;;;;;;;-2.06;66.51;98640.97;5092085;28;20201;-61
2022/03/04 04:45:58;;;;;;;18.97;9.97;;;;;;;-2.08;66.75;98647.88;5091760;28;20189;-62
2022/03/04 04:48:25;;;;;;;18.73;9.60;;;;;;;-2.06;66.94;98645.25;5092257;28;20194;-62
2022/03/04 04:50:52;;;;;;;16.50;9.43;;;;;;;-1.86;66.23;98649.44;5092079;28;20189;-62
2022/03/04 04:53:18;;;;;;;22.90;10.20;;;;;;;-1.83;67.48;98645.03;5091567;28;20217;-62
2022/03/04 04:55:45;;;;;;;20.70;10.57;;;;;;;-1.75;66.65;98654.06;5091644;28;20213;-62
2022/03/04 04:58:13;;;;;;;19.73;9.83;;;;;;;-1.90;66.19;98646.22;5091954;28;20197;-62
2022/03/04 05:00:41;;;;;;;19.63;9.53;;;;;;;-2.00;67.18;98661.16;5091915;28;20203;-62
2022/03/04 05:03:08;;;;;;;22.10;9.90;;;;;;;-1.81;65.52;98655.19;5091489;28;20267;-62
2022/03/04 05:05:35;;;;;;;24.37;11.10;;;;;;;-1.96;66.05;98661.84;5091316;28;20200;-62
2022/03/04 05:08:02;;;;;;;21.47;10.40;;;;;;;-2.03;66.87;98663.03;5091738;28;20181;-62
2022/03/04 05:10:29;;;;;;;19.40;10.03;;;;;;;-1.85;66.16;98661.34;5091771;28;20273;-62
2022/03/04 05:12:56;;;;;;;20.53;10.47;;;;;;;-2.01;66.88;98653.56;5091335;28;20284;-62
2022/03/04 05:15:24;;;;;;;19.23;10.33;;;;;;;-2.08;66.55;98664.06;5091229;28;20246;-62
2022/03/04 05:17:51;;;;;;;18.40;10.27;;;;;;;-2.06;65.62;98655.50;5099047;28;20202;-62
2022/03/04 05:20:18;;;;;;;19.77;10.53;;;;;;;-2.14;66.29;98656.66;5098570;28;20219;-62
2022/03/04 05:22:45;;;;;;;20.43;10.37;;;;;;;-2.11;67.27;98658.25;5093461;28;20217;-62
2022/03/04 05:25:13;;;;;;;21.43;10.27;;;;;;;-2.02;66.07;98664.69;5090771;28;20526;-62
2022/03/04 05:27:40;;;;;;;22.40;10.63;;;;;;;-2.09;66.81;98662.41;5091484;28;20247;-62
2022/03/04 05:30:08;;;;;;;20.87;10.63;;;;;;;-2.06;67.19;98671.66;5091494;28;20240;-62
2022/03/04 05:32:36;;;;;;;19.87;9.10;;;;;;;-2.07;65.89;98659.75;5090882;28;20210;-62
2022/03/04 05:35:04;;;;;;;21.92;12.93;;;;;;;-2.12;66.84;98665.09;5089892;28;20429;-62
2022/03/04 05:37:31;;;;;;;24.83;12.20;;;;;;;-2.05;66.41;98672.50;5091218;28;20202;-62
2022/03/04 05:39:58;;;;;;;22.13;10.73;;;;;;;-2.08;66.71;98673.44;5091301;28;20177;-62
2022/03/04 05:42:25;;;;;;;24.47;10.63;;;;;;;-2.06;65.98;98676.78;5090522;28;20209;-61
2022/03/04 05:44:51;;;;;;;19.83;10.07;;;;;;;-2.10;66.49;98680.38;5090793;28;20615;-62
2022/03/04 05:47:18;;;;;;;23.53;10.17;;;;;;;-2.07;65.38;98675.13;5091083;28;20186;-62
2022/03/04 05:49:46;;;;;;;22.80;9.77;;;;;;;-1.82;63.48;98679.09;5091204;28;20182;-62
2022/03/04 05:52:13;;;;;;;21.23;10.00;;;;;;;-1.85;63.62;98686.94;5090705;28;20216;-62
2022/03/04 05:54:40;;;;;;;19.90;9.10;;;;;;;-1.88;63.56;98685.34;5090189;28;20204;-62
2022/03/04 05:57:07;;;;;;;19.27;9.77;;;;;;;-1.74;63.30;98689.81;5090916;28;20202;-62
2022/03/04 05:59:34;;;;;;;22.60;10.50;;;;;;;-1.57;61.86;98695.88;5090634;28;20229;-62
2022/03/04 06:02:00;;;;;;;23.00;10.27;;;;;;;-1.37;59.99;98700.91;5090664;28;20207;-61
2022/03/04 06:04:27;;;;;;;20.13;9.73;;;;;;;-1.16;58.70;98705.03;5090484;28;20661;-61
2022/03/04 06:06:55;;;;;;;22.43;10.27;;;;;;;-1.11;58.90;98696.25;5092697;28;20190;-62
2022/03/04 06:09:27;;;;;;;20.33;9.83;;;;;;;-1.01;58.55;98700.88;5104165;28;20193;-62
2022/03/04 06:11:54;;;;;;;23.47;9.90;;;;;;;-0.96;58.37;98704.91;5090186;28;20264;-61
2022/03/04 06:14:21;;;;;;;20.27;10.27;;;;;;;-0.94;59.14;98709.94;5090466;28;20656;-62
2022/03/04 06:16:48;;;;;;;21.17;11.00;;;;;;;-0.86;60.22;98717.25;5090656;28;20213;-62
2022/03/04 06:19:15;;;;;;;19.60;9.10;;;;;;;-0.93;59.40;98722.69;5090811;28;20649;-61
2022/03/04 06:21:41;;;;;;;22.43;12.40;;;;;;;-1.00;60.37;98717.91;5089326;28;20205;-61
2022/03/04 06:24:10;;;;;;;20.40;11.20;;;;;;;-0.99;63.39;98724.69;5089815;28;20196;-62
2022/03/04 06:26:36;;;;;;;23.83;10.93;;;;;;;-1.08;63.83;98720.88;5090583;28;20193;-61
2022/03/04 06:29:03;;;;;;;21.53;9.97;;;;;;;-1.21;63.95;98724.03;5090703;28;20202;-62
2022/03/04 06:31:30;;;;;;;24.27;12.53;;;;;;;-1.30;63.89;98721.91;5090630;28;20657;-62
2022/03/04 06:33:57;;;;;;;24.03;11.83;;;;;;;-1.34;64.59;98716.13;5090041;28;20293;-62
2022/03/04 06:36:24;;;;;;;24.67;11.57;;;;;;;-1.40;65.26;98715.56;5090612;28;20241;-62
2022/03/04 06:38:51;;;;;;;48.50;17.53;;;;;;;-1.46;66.37;98720.97;5090566;28;20254;-61
2022/03/04 06:41:19;;;;;;;65.97;24.80;;;;;;;-1.44;66.28;98720.00;5090398;28;20307;-61
2022/03/04 06:43:47;;;;;;;29.93;14.77;;;;;;;-1.46;66.02;98726.94;5089938;28;20213;-62
2022/03/04 06:46:14;;;;;;;22.13;10.90;;;;;;;-1.41;66.41;98719.03;5090167;28;20193;-61
2022/03/04 06:48:41;;;;;;;21.37;11.20;;;;;;;-1.41;67.02;98722.44;5090444;28;20638;-61
2022/03/04 06:51:08;;;;;;;20.40;10.00;;;;;;;-1.50;67.40;98727.97;5090540;28;20182;-61
2022/03/04 06:53:35;;;;;;;25.53;11.57;;;;;;;-1.53;65.84;98726.38;5089788;28;20577;-61
2022/03/04 06:56:02;;;;;;;23.13;11.73;;;;;;;-1.58;65.50;98735.19;5101675;28;20185;-61
2022/03/04 06:58:30;;;;;;;26.30;13.20;;;;;;;-1.55;66.17;98742.72;5103258;28;20209;-61
2022/03/04 07:00:57;;;;;;;30.65;14.05;;;;;;;-1.53;66.53;98740.91;5100979;28;20860;-64
2022/03/04 07:03:24;;;;;;;26.80;13.18;;;;;;;-1.47;67.27;98743.19;5093750;28;20819;-64
2022/03/04 07:05:51;;;;;;;32.77;15.20;;;;;;;-1.46;66.53;98744.84;5093799;28;20225;-64
2022/03/04 07:08:18;;;;;;;30.27;14.77;;;;;;;-1.46;67.73;98756.81;5093924;28;20272;-64
2022/03/04 07:10:45;;;;;;;31.43;15.40;;;;;;;-1.50;68.99;98751.03;5094145;28;20198;-64
2022/03/04 07:13:13;;;;;;;32.50;15.43;;;;;;;-1.55;68.68;98758.91;5093774;28;20214;-64
2022/03/04 07:15:41;;;;;;;31.53;16.30;;;;;;;-1.58;69.10;98753.09;5093527;28;20184;-64
2022/03/04 07:18:10;;;;;;;31.63;16.50;;;;;;;-1.67;68.81;98760.31;5093599;28;20802;-64
2022/03/04 07:20:36;;;;;;;31.00;14.93;;;;;;;-1.69;69.36;98759.53;5094009;28;20824;-65
2022/03/04 07:23:04;;;;;;;30.83;14.83;;;;;;;-1.75;69.19;98761.56;5093411;28;20202;-65
2022/03/04 07:25:30;;;;;;;32.87;15.10;;;;;;;-1.78;69.79;98770.19;5093498;28;20221;-65
2022/03/04 07:27:57;;;;;;;33.20;15.20;;;;;;;-1.79;69.66;98761.69;5093767;28;20197;-65
2022/03/04 07:30:24;;;;;;;32.00;14.77;;;;;;;-1.82;70.06;98766.09;5093908;28;20212;-65
2022/03/04 07:32:52;;;;;;;29.73;14.37;;;;;;;-1.89;69.90;98757.88;5093352;28;20213;-65
2022/03/04 07:35:19;;;;;;;31.53;18.53;;;;;;;-1.87;71.09;98763.78;5091964;28;20502;-65
2022/03/04 07:37:46;;;;;;;27.37;15.40;;;;;;;-1.90;70.90;98770.75;5092141;28;20468;-65
2022/03/04 07:40:14;;;;;;;30.83;13.83;;;;;;;-1.85;70.04;98768.81;5092340;28;20190;-64
2022/03/04 07:42:42;;;;;;;28.07;12.40;;;;;;;-1.74;70.79;98768.34;5093834;28;20379;-64
2022/03/04 07:45:10;;;;;;;27.97;12.33;;;;;;;-1.68;69.62;98771.44;5101924;28;20181;-65
2022/03/04 07:47:37;;;;;;;24.30;12.07;;;;;;;-1.67;69.75;98769.72;5094809;28;20212;-64
2022/03/04 07:50:06;;;;;;;27.67;14.73;;;;;;;-1.61;71.00;98779.69;5093003;28;20243;-64
2022/03/04 07:52:33;;;;;;;28.50;13.97;;;;;;;-1.54;69.94;98786.16;5092763;28;20216;-64
2022/03/04 07:55:00;;;;;;;32.00;14.80;;;;;;;-1.45;69.62;98790.03;5092903;28;20190;-64
2022/03/04 07:57:28;;;;;;;27.23;13.50;;;;;;;-1.51;69.72;98780.91;5093170;28;20206;-64
2022/03/04 07:59:55;;;;;;;27.07;13.67;;;;;;;-1.43;69.90;98788.25;5092985;28;20186;-64
2022/03/04 08:02:21;;;;;;;35.43;17.10;;;;;;;-1.33;69.35;98783.50;5092663;28;20205;-63
2022/03/04 08:04:48;;;;;;;35.20;18.67;;;;;;;-1.18;69.83;98781.97;5092511;28;20190;-63
2022/03/04 08:07:18;;;;;;;40.33;21.43;;;;;;;-1.13;69.71;98787.72;5092883;28;20181;-64
2022/03/04 08:09:47;;;;;;;46.13;24.10;;;;;;;-1.13;69.79;98795.41;5093146;28;20653;-64
2022/03/04 08:12:14;;;;;;;41.30;20.63;;;;;;;-1.05;69.59;98795.84;5092620;28;20205;-64
2022/03/04 08:14:41;;;;;;;39.40;21.17;;;;;;;-0.93;69.84;98801.28;5092967;28;20649;-64
2022/03/04 08:17:08;;;;;;;33.27;18.10;;;;;;;-0.90;69.94;98801.97;5092555;28;20206;-64
2022/03/04 08:19:35;;;;;;;35.73;20.40;;;;;;;-0.77;69.13;98806.50;5092994;28;20186;-64
2022/03/04 08:22:03;;;;;;;34.87;17.80;;;;;;;-0.69;68.75;98799.28;5090949;28;20589;-64
2022/03/04 08:24:31;;;;;;;32.97;17.63;;;;;;;-0.57;69.14;98802.97;5092253;28;20182;-64
2022/03/04 08:26:58;;;;;;;32.23;18.53;;;;;;;-0.47;67.93;98809.31;5092614;28;20256;-64
2022/03/04 08:29:24;;;;;;;27.17;15.23;;;;;;;-0.28;67.44;98795.56;5092512;28;20546;-64
2022/03/04 08:31:52;;;;;;;31.73;16.93;;;;;;;-0.16;67.23;98799.22;5097152;28;20185;-64
2022/03/04 08:34:19;;;;;;;30.33;15.50;;;;;;;-0.07;66.84;98790.25;5102167;28;20200;-63
2022/03/04 08:36:46;;;;;;;29.57;15.63;;;;;;;0.06;66.39;98801.50;5092091;28;20239;-65
2022/03/04 08:39:12;;;;;;;34.60;16.73;;;;;;;0.23;65.60;98818.59;5092496;28;20197;-64
2022/03/04 08:41:41;;;;;;;27.93;16.07;;;;;;;0.33;65.24;98810.41;5092304;28;20241;-65
2022/03/04 08:44:08;;;;;;;39.30;21.43;;;;;;;0.43;64.93;98814.16;5091597;28;20198;-64
2022/03/04 08:46:35;;;;;;;31.87;17.50;;;;;;;0.51;65.01;98812.00;5092197;28;20566;-65
2022/03/04 08:49:02;;;;;;;32.60;17.13;;;;;;;0.69;63.86;98815.31;5092255;28;20176;-65
2022/03/04 08:51:29;;;;;;;31.17;16.60;;;;;;;0.75;63.59;98829.56;5092161;28;20190;-64
2022/03/04 08:53:57;;;;;;;32.27;16.63;;;;;;;0.78;63.58;98823.44;5090093;28;20585;-65
2022/03/04 08:56:24;;;;;;;27.67;15.40;;;;;;;0.84;63.95;98818.78;5092170;28;20184;-65
2022/03/04 08:58:52;;;;;;;29.30;16.80;;;;;;;0.92;63.60;98826.09;5090266;28;20215;-64
2022/03/04 09:01:19;;;;;;;32.37;17.17;;;;;;;0.88;63.88;98834.88;5090683;28;20190;-65
2022/03/04 09:03:45;;;;;;;34.27;18.00;;;;;;;0.97;64.07;98829.22;5091803;28;20201;-65
2022/03/04 09:06:12;;;;;;;34.83;17.90;;;;;;;1.05;63.92;98825.41;5091519;28;20232;-65
2022/03/04 09:08:39;;;;;;;38.50;20.20;;;;;;;1.16;62.48;98825.59;5091844;28;20195;-65
2022/03/04 09:11:06;;;;;;;33.17;18.13;;;;;;;1.20;62.48;98826.28;5091792;28;20193;-65
2022/03/04 09:13:33;;;;;;;35.20;17.80;;;;;;;1.37;61.85;98836.44;5091269;28;20215;-65
2022/03/04 09:16:01;;;;;;;34.03;18.00;;;;;;;1.38;61.21;98832.97;5091305;28;20183;-64
2022/03/04 09:18:29;;;;;;;34.23;17.87;;;;;;;1.43;61.15;98830.09;5090526;28;20207;-64
2022/03/04 09:20:56;;;;;;;35.07;17.47;;;;;;;1.50;61.09;98828.84;5095387;28;20187;-66
2022/03/04 09:23:23;;;;;;;33.13;17.87;;;;;;;1.55;61.68;98823.44;5091509;28;20294;-64
2022/03/04 09:25:51;;;;;;;32.30;16.87;;;;;;;1.69;61.52;98831.16;5090921;28;20199;-65
2022/03/04 09:28:17;;;;;;;36.93;18.70;;;;;;;1.81;61.02;98836.53;5091409;28;20270;-65
2022/03/04 09:30:45;;;;;;;35.33;19.00;;;;;;;1.87;60.19;98831.00;5090230;28;20197;-65
2022/03/04 09:33:13;;;;;;;39.43;20.63;;;;;;;1.96;60.30;98834.81;5091186;28;20205;-65
2022/03/04 09:35:40;;;;;;;37.43;19.23;;;;;;;2.06;60.52;98838.50;5090822;28;20194;-65
2022/03/04 09:38:07;;;;;;;41.67;21.27;;;;;;;2.05;61.31;98842.00;5091241;28;20199;-65
2022/03/04 09:40:34;;;;;;;43.87;20.53;;;;;;;2.21;60.23;98845.28;5091179;28;20195;-64
2022/03/04 09:43:02;;;;;;;43.30;20.57;;;;;;;2.12;60.19;98842.44;5090873;28;20202;-65
2022/03/04 09:45:30;;;;;;;40.30;19.73;;;;;;;2.31;59.94;98837.00;5090742;28;20178;-65
2022/03/04 09:47:57;;;;;;;38.00;19.77;;;;;;;2.39;59.13;98845.09;5091127;28;20187;-65
2022/03/04 09:50:27;;;;;;;34.93;19.97;;;;;;;2.54;59.10;98851.06;5091132;28;20204;-64
2022/03/04 09:52:54;;;;;;;41.70;21.13;;;;;;;2.64;59.03;98843.59;5090489;28;20220;-64
2022/03/04 09:55:21;;;;;;;38.13;20.30;;;;;;;2.76;59.13;98840.25;5090298;28;20657;-64
2022/03/04 09:57:48;;;;;;;38.23;19.97;;;;;;;2.80;58.94;98846.88;5090824;28;20208;-64
2022/03/04 10:00:16;;;;;;;43.57;20.67;;;;;;;3.08;58.21;98852.03;5090806;28;20247;-64
2022/03/04 10:02:43;;;;;;;35.83;19.60;;;;;;;3.03;57.87;98849.75;5090551;28;20687;-64
2022/03/04 10:05:10;;;;;;;39.47;20.30;;;;;;;3.19;58.32;98848.75;5090537;28;20203;-64
2022/03/04 10:07:42;;;;;;;40.60;21.33;;;;;;;3.27;58.26;98843.13;5093596;28;20198;-64
2022/03/04 10:10:15;;;;;;;40.90;21.43;;;;;;;3.37;57.49;98831.28;5098941;28;20277;-65
2022/03/04 10:12:53;;;;;;;41.20;24.37;;;;;;;3.52;58.11;98829.44;5090478;28;20222;-64
2022/03/04 10:15:20;;;;;;;38.73;20.43;;;;;;;3.60;57.09;98827.19;5090448;28;20214;-66
2022/03/04 10:18:01;;;;;;;38.33;20.17;;;;;;;3.75;56.05;98829.69;5090538;28;20387;-64
2022/03/04 10:20:36;;;;;;;41.10;21.23;;;;;;;3.86;56.09;98826.38;5090787;28;20193;-65
2022/03/04 10:23:13;;;;;;;45.40;22.37;;;;;;;3.96;55.00;98824.81;5090438;28;20206;-65
2022/03/04 10:25:43;;;;;;;38.27;20.93;;;;;;;4.07;54.92;98829.28;5090361;28;20661;-65
2022/03/04 10:28:11;;;;;;;40.40;20.80;;;;;;;4.14;54.17;98826.16;5091004;28;20204;-64
2022/03/04 10:30:42;;;;;;;39.73;21.87;;;;;;;4.25;54.88;98822.03;5094843;28;20194;-65
2022/03/04 10:33:10;;;;;;;38.77;21.07;;;;;;;4.38;53.60;98811.66;5094465;28;20214;-65
2022/03/04 10:35:38;;;;;;;35.03;20.70;;;;;;;4.52;54.19;98814.09;5094375;28;20180;-65
2022/03/04 10:38:05;;;;;;;39.60;21.23;;;;;;;4.65;53.09;98808.06;5094642;28;20198;-65
2022/03/04 10:40:42;;;;;;;40.80;21.17;;;;;;;4.77;52.60;98812.38;5094579;28;20186;-65
2022/03/04 10:43:10;;;;;;;43.77;20.93;;;;;;;4.91;53.04;98815.75;5094268;28;20220;-65
2022/03/04 10:45:40;;;;;;;39.80;22.20;;;;;;;4.97;52.22;98817.88;5094455;28;20232;-65
2022/03/04 10:48:09;;;;;;;35.80;20.50;;;;;;;5.08;52.32;98820.53;5094456;28;20213;-65
2022/03/04 10:50:38;;;;;;;42.13;21.10;;;;;;;5.21;51.61;98814.47;5095543;28;20196;-65
2022/03/04 10:53:06;;;;;;;35.37;21.20;;;;;;;5.33;51.86;98810.97;5093782;28;20220;-66
2022/03/04 10:55:39;;;;;;;40.47;20.57;;;;;;;5.43;49.97;98809.34;5097981;28;20213;-65
2022/03/04 10:58:08;;;;;;;39.53;20.47;;;;;;;5.52;50.08;98807.84;5097836;28;20206;-66
2022/03/04 11:00:36;;;;;;;44.27;20.40;;;;;;;5.70;48.62;98812.59;5101001;28;20720;-65
2022/03/04 11:03:05;;;;;;;37.53;20.17;;;;;;;5.78;48.75;98810.25;5102166;28;20743;-63
2022/03/04 11:05:32;;;;;;;37.20;20.10;;;;;;;5.94;48.50;98815.09;5094994;28;20197;-68
2022/03/04 11:08:00;;;;;;;43.90;21.10;;;;;;;5.99;47.54;98801.78;5096836;28;20189;-67
2022/03/04 11:10:27;;;;;;;44.13;20.50;;;;;;;6.03;47.60;98804.06;5100646;28;20205;-68
2022/03/04 11:12:55;;;;;;;35.63;20.60;;;;;;;6.05;48.02;98803.94;5103998;28;20205;-67
2022/03/04 11:15:24;;;;;;;38.20;20.87;;;;;;;6.22;46.58;98809.59;5102380;28;20186;-67
2022/03/04 11:17:52;;;;;;;39.30;21.20;;;;;;;6.25;47.39;98804.19;5093815;28;20195;-68
2022/03/04 11:20:20;;;;;;;44.93;21.30;;;;;;;6.38;46.91;98798.84;5093211;28;20187;-67
2022/03/04 11:22:51;;;;;;;41.53;21.23;;;;;;;6.46;46.36;98796.47;5093019;28;20506;-67
2022/03/04 11:25:19;;;;;;;46.40;19.93;;;;;;;6.55;46.57;98785.38;5092811;28;20206;-67